Time;durP1;ratioP1;P1;durP2;ratioP2;P2;SDS_P1;SDS_P2;PMS_P1;PMS_P2;Temp;Humidity;BMP_temperature;BMP_pressure;BME280_temperature;BME280_humidity;BME280_pressure;Samples;Min_cycle;Max_cycle;Signal;HPM_P1;HPM_P2
2021/11/30 00:02:54;;;;;;;21.25;13.95;;;;;;;2.16;77.27;99239.23;2195360;80;33370;-56
2021/11/30 00:05:56;;;;;;;20.55;13.60;;;;;;;2.17;77.26;99230.86;2146209;83;29993;-57
2021/11/30 00:09:09;;;;;;;22.90;13.40;;;;;;;2.15;77.19;99236.21;2193277;80;28266;-55
2021/11/30 00:12:17;;;;;;;17.55;12.55;;;;;;;2.15;77.26;99239.30;2108493;83;28468;-53
2021/11/30 00:15:19;;;;;;;21.27;12.88;;;;;;;2.15;77.25;99234.01;2205086;80;31016;-50
2021/11/30 00:18:20;;;;;;;16.15;12.53;;;;;;;2.17;77.29;99238.79;2201446;80;33389;-56
2021/11/30 00:21:22;;;;;;;19.30;13.28;;;;;;;2.16;77.27;99251.12;2181390;80;29705;-57
2021/11/30 00:24:27;;;;;;;17.98;12.40;;;;;;;2.17;77.23;99257.28;2182188;80;27725;-66
2021/11/30 00:27:28;;;;;;;20.72;13.32;;;;;;;2.16;77.30;99252.91;2203486;80;30160;-68
2021/11/30 00:30:31;;;;;;;19.65;12.82;;;;;;;2.16;77.25;99263.01;2195621;80;31824;-68
2021/11/30 00:33:33;;;;;;;18.20;12.55;;;;;;;2.16;77.27;99260.36;2189701;80;32970;-67
2021/11/30 00:36:35;;;;;;;19.45;12.58;;;;;;;2.17;77.32;99264.73;2188952;79;29692;-69
2021/11/30 00:39:36;;;;;;;18.45;12.33;;;;;;;2.15;77.27;99265.27;2181703;80;28292;-69
2021/11/30 00:42:39;;;;;;;17.48;11.97;;;;;;;2.18;77.26;99259.02;2182294;80;28840;-68
2021/11/30 00:45:51;;;;;;;19.77;12.28;;;;;;;2.17;77.21;99252.00;2184390;81;31029;-68
2021/11/30 00:48:45;;;;;;;17.52;12.15;;;;;;;2.13;77.10;99257.84;2197061;80;33415;-68
2021/11/30 00:51:49;;;;;;;16.00;11.10;;;;;;;2.05;76.92;99259.41;2178073;80;30477;-69
2021/11/30 00:54:51;;;;;;;12.75;10.28;;;;;;;1.96;76.85;99255.28;2177314;80;28165;-69
2021/11/30 00:57:53;;;;;;;14.87;9.60;;;;;;;1.87;76.82;99257.34;2178674;81;29909;-68
2021/11/30 01:00:55;;;;;;;17.40;11.18;;;;;;;1.77;76.85;99264.68;2118397;81;32422;-69
2021/11/30 01:03:59;;;;;;;14.25;9.85;;;;;;;1.65;76.90;99268.11;2218179;80;34335;-69
2021/11/30 01:07:01;;;;;;;15.88;10.25;;;;;;;1.56;76.96;99272.79;2218219;80;30279;-69
2021/11/30 01:10:13;;;;;;;12.33;9.65;;;;;;;1.49;77.02;99280.88;2182217;80;28200;-69
2021/11/30 01:13:16;;;;;;;15.05;10.15;;;;;;;1.40;77.10;99281.16;2178642;81;28696;-66
2021/11/30 01:16:18;;;;;;;13.18;9.65;;;;;;;1.34;77.18;99282.64;2178935;81;31403;-68
2021/11/30 01:19:20;;;;;;;14.60;10.15;;;;;;;1.27;77.24;99279.75;2203528;80;34244;-64
2021/11/30 01:22:22;;;;;;;17.62;11.20;;;;;;;1.20;77.34;99277.30;2198708;78;30404;-67
2021/11/30 01:25:25;;;;;;;16.40;9.33;;;;;;;1.16;77.35;99278.28;2178336;81;27738;-67
2021/11/30 01:28:27;;;;;;;14.07;9.30;;;;;;;1.13;77.40;99283.64;2179139;80;29802;-70
2021/11/30 01:31:28;;;;;;;15.75;8.75;;;;;;;1.08;77.39;99280.72;2107198;81;31787;-70
2021/11/30 01:34:30;;;;;;;13.95;8.53;;;;;;;1.03;77.46;99280.39;2178401;80;33311;-69
2021/11/30 01:37:33;;;;;;;13.45;8.83;;;;;;;0.98;77.48;99284.94;2164435;81;30515;-70
2021/11/30 01:40:36;;;;;;;13.28;8.93;;;;;;;0.95;77.53;99288.09;2207131;80;27819;-69
2021/11/30 01:43:41;;;;;;;12.98;8.60;;;;;;;0.93;77.58;99286.83;2137014;83;29964;-70
2021/11/30 01:47:06;;;;;;;11.05;7.55;;;;;;;0.90;77.58;99295.69;2188948;79;32067;-69
2021/11/30 01:49:59;;;;;;;13.62;9.18;;;;;;;0.87;77.58;99290.92;2165982;81;33395;-68
2021/11/30 01:53:01;;;;;;;12.85;7.75;;;;;;;0.84;77.66;99306.82;2181617;81;29443;-66
2021/11/30 01:56:04;;;;;;;15.35;8.20;;;;;;;0.82;77.74;99306.03;2134047;82;27669;-66
2021/11/30 01:59:06;;;;;;;12.85;7.72;;;;;;;0.81;77.83;99310.41;2170572;80;29527;-63
2021/11/30 02:02:08;;;;;;;12.63;7.65;;;;;;;0.81;77.83;99309.56;2147398;82;32171;-66
2021/11/30 02:05:11;;;;;;;12.75;8.28;;;;;;;0.81;77.85;99314.84;2126226;83;33424;-67
2021/11/30 02:08:13;;;;;;;15.58;9.40;;;;;;;0.80;77.85;99315.27;2172128;80;30579;-69
2021/11/30 02:11:15;;;;;;;11.38;7.15;;;;;;;0.81;77.75;99316.16;2167480;81;27727;-68
2021/11/30 02:14:17;;;;;;;12.03;7.30;;;;;;;0.79;77.69;99307.42;2106485;84;29496;-67
2021/11/30 02:17:19;;;;;;;14.00;7.95;;;;;;;0.77;77.68;99318.45;2168573;80;31392;-66
2021/11/30 02:20:21;;;;;;;12.78;7.42;;;;;;;0.74;77.67;99314.13;2171078;80;32733;-67
2021/11/30 02:23:45;;;;;;;12.23;6.30;;;;;;;0.72;77.69;99308.03;2179294;80;29509;-68
2021/11/30 02:26:42;;;;;;;12.90;7.87;;;;;;;0.69;77.69;99302.36;2167677;80;27652;-69
2021/11/30 02:29:43;;;;;;;11.38;7.30;;;;;;;0.68;77.62;99302.41;2168940;80;29839;-68
2021/11/30 02:32:45;;;;;;;9.30;6.40;;;;;;;0.63;77.61;99305.61;2172612;80;30995;-70
2021/11/30 02:35:48;;;;;;;9.53;6.85;;;;;;;0.58;77.60;99294.72;2168432;80;34281;-69
2021/11/30 02:38:50;;;;;;;12.60;6.55;;;;;;;0.54;77.62;99293.09;2174593;80;30517;-69
2021/11/30 02:41:54;;;;;;;9.20;6.97;;;;;;;0.53;77.58;99295.74;2179756;80;27666;-69
2021/11/30 02:44:55;;;;;;;10.58;6.87;;;;;;;0.49;77.58;99304.19;2168449;82;29111;-69
2021/11/30 02:47:58;;;;;;;10.05;6.60;;;;;;;0.47;77.60;99303.35;2180856;80;31439;-66
2021/11/30 02:51:05;;;;;;;13.45;8.40;;;;;;;0.44;77.65;99295.52;2215099;80;34166;-54
2021/11/30 02:54:10;;;;;;;10.15;6.90;;;;;;;0.41;77.71;99294.30;2199363;80;30744;-54
2021/11/30 02:57:15;;;;;;;13.05;7.85;;;;;;;0.38;77.86;99287.31;2209741;80;27726;-68
2021/11/30 03:00:17;;;;;;;13.43;8.88;;;;;;;0.39;77.98;99293.00;2191664;80;27939;-62
2021/11/30 03:03:19;;;;;;;14.73;8.70;;;;;;;0.42;78.14;99289.41;2199594;79;31903;-54
2021/11/30 03:06:21;;;;;;;14.98;8.63;;;;;;;0.47;78.18;99294.59;2221298;79;33674;-56
2021/11/30 03:09:23;;;;;;;12.50;8.15;;;;;;;0.51;78.27;99298.86;2199283;79;30340;-56
2021/11/30 03:12:25;;;;;;;14.10;9.25;;;;;;;0.56;78.23;99298.31;2203276;80;28259;-59
2021/11/30 03:15:27;;;;;;;14.03;8.58;;;;;;;0.58;78.17;99287.28;2199955;78;29078;-59
2021/11/30 03:18:30;;;;;;;12.88;8.53;;;;;;;0.62;78.18;99293.33;2212899;78;31038;-57
2021/11/30 03:21:32;;;;;;;12.88;8.85;;;;;;;0.64;78.22;99273.95;2202095;80;34154;-57
2021/11/30 03:24:34;;;;;;;13.05;8.38;;;;;;;0.67;78.09;99274.32;2219092;80;28827;-56
2021/11/30 03:27:37;;;;;;;14.03;9.40;;;;;;;0.67;78.00;99273.00;2188571;80;28282;-57
2021/11/30 03:30:48;;;;;;;13.93;9.13;;;;;;;0.66;77.98;99275.22;2209812;80;29909;-54
2021/11/30 03:34:01;;;;;;;15.03;8.45;;;;;;;0.63;77.93;99270.02;2222007;80;31245;-55
2021/11/30 03:37:06;;;;;;;13.50;9.30;;;;;;;0.61;77.93;99270.08;2129338;82;33671;-54
2021/11/30 03:40:11;;;;;;;13.22;8.60;;;;;;;0.59;78.06;99264.83;2150323;82;30126;-59
2021/11/30 03:43:13;;;;;;;12.75;8.98;;;;;;;0.60;78.18;99269.20;2197425;79;27758;-56
2021/11/30 03:46:15;;;;;;;16.42;10.63;;;;;;;0.64;78.25;99268.69;2212678;79;28670;-55
2021/11/30 03:49:18;;;;;;;13.88;9.05;;;;;;;0.68;78.34;99273.42;2175497;80;31032;-54
2021/11/30 03:52:20;;;;;;;14.73;10.05;;;;;;;0.73;78.42;99272.86;2185891;80;34117;-56
2021/11/30 03:55:22;;;;;;;15.58;9.78;;;;;;;0.79;78.44;99270.04;2174359;80;30268;-54
2021/11/30 03:58:24;;;;;;;16.25;9.55;;;;;;;0.85;78.49;99271.21;2110181;84;27721;-53
2021/11/30 04:01:26;;;;;;;15.38;9.58;;;;;;;0.90;78.50;99269.33;2181927;80;28335;-51
2021/11/30 04:04:31;;;;;;;13.90;10.20;;;;;;;0.98;78.50;99266.91;2182222;80;32434;-55
2021/11/30 04:07:31;;;;;;;11.20;9.25;;;;;;;1.02;78.47;99265.47;2189862;80;34305;-58
2021/11/30 04:10:33;;;;;;;13.13;9.48;;;;;;;1.10;78.46;99263.94;2203959;80;29828;-67
2021/11/30 04:13:36;;;;;;;14.38;11.05;;;;;;;1.17;78.56;99270.78;2183658;80;27690;-70
2021/11/30 04:16:38;;;;;;;16.82;11.20;;;;;;;1.26;78.58;99271.42;2181915;81;28652;-67
2021/11/30 04:19:40;;;;;;;17.85;12.03;;;;;;;1.31;78.47;99267.77;2182561;80;32185;-57
2021/11/30 04:22:43;;;;;;;17.37;12.13;;;;;;;1.38;78.44;99272.41;2181742;81;33346;-61
2021/11/30 04:25:45;;;;;;;15.20;11.00;;;;;;;1.43;78.45;99264.36;2181931;81;29357;-60
2021/11/30 04:28:47;;;;;;;18.10;12.68;;;;;;;1.46;78.49;99262.48;2181904;80;27684;-58
2021/11/30 04:31:49;;;;;;;23.32;14.15;;;;;;;1.51;78.54;99255.31;2219568;80;28661;-60
2021/11/30 04:34:51;;;;;;;18.75;13.00;;;;;;;1.56;78.61;99249.89;2219514;80;32259;-57
2021/11/30 04:37:53;;;;;;;21.62;13.55;;;;;;;1.63;78.64;99250.12;2208559;80;33359;-60
2021/11/30 04:40:55;;;;;;;22.60;14.58;;;;;;;1.67;78.61;99250.42;2181476;81;29326;-57
2021/11/30 04:43:57;;;;;;;22.22;15.75;;;;;;;1.72;78.61;99247.66;2180907;80;27686;-64
2021/11/30 04:47:06;;;;;;;24.82;15.80;;;;;;;1.76;78.53;99248.42;2182651;80;29482;-58
2021/11/30 04:50:35;;;;;;;23.67;16.30;;;;;;;1.79;78.55;99238.63;2187710;80;31455;-65
2021/11/30 04:53:13;;;;;;;20.05;14.63;;;;;;;1.82;78.55;99238.53;2183957;80;33197;-67
2021/11/30 04:56:16;;;;;;;23.27;14.35;;;;;;;1.85;78.44;99235.40;2179542;81;29744;-63
2021/11/30 04:59:19;;;;;;;33.85;17.27;;;;;;;1.85;78.35;99231.44;2224183;80;27614;-64
2021/11/30 05:02:22;;;;;;;52.33;20.95;;;;;;;1.85;78.35;99230.11;2186586;80;28661;-58
2021/11/30 05:05:24;;;;;;;55.03;22.90;;;;;;;1.82;78.20;99226.66;2186467;80;31421;-63
2021/11/30 05:08:25;;;;;;;45.48;19.10;;;;;;;1.79;78.20;99229.38;2180601;81;33402;-60
2021/11/30 05:11:28;;;;;;;35.65;15.85;;;;;;;1.82;78.34;99232.41;2175556;81;30536;-59
2021/11/30 05:14:29;;;;;;;27.20;13.85;;;;;;;1.82;78.28;99225.80;2175918;81;28086;-58
2021/11/30 05:17:31;;;;;;;22.42;12.18;;;;;;;1.82;78.32;99227.12;2183491;80;28490;-63
2021/11/30 05:20:33;;;;;;;18.32;11.88;;;;;;;1.82;78.36;99229.30;2212397;79;31417;-59
2021/11/30 05:23:35;;;;;;;15.05;11.33;;;;;;;1.86;78.32;99220.81;2214350;79;33861;-66
2021/11/30 05:26:38;;;;;;;18.57;12.50;;;;;;;1.88;78.40;99224.27;2214275;79;29353;-60
2021/11/30 05:29:40;;;;;;;16.65;12.10;;;;;;;1.92;78.50;99220.62;2214083;79;27663;-57
2021/11/30 05:32:42;;;;;;;19.65;13.10;;;;;;;1.97;78.49;99229.72;2214562;79;29842;-67
2021/11/30 05:35:44;;;;;;;17.75;13.93;;;;;;;2.01;78.47;99225.19;2214001;80;31198;-67
2021/11/30 05:38:47;;;;;;;18.70;13.13;;;;;;;2.03;78.36;99224.69;2152831;82;32964;-67
2021/11/30 05:41:48;;;;;;;18.52;13.08;;;;;;;2.03;78.30;99216.33;2187898;81;29698;-64
2021/11/30 05:44:51;;;;;;;19.20;13.25;;;;;;;2.04;78.28;99207.94;2225026;80;27689;-58
2021/11/30 05:47:54;;;;;;;18.70;13.15;;;;;;;2.06;78.37;99208.75;2218760;79;28658;-67
2021/11/30 05:50:55;;;;;;;19.17;13.10;;;;;;;2.07;78.30;99196.80;2194941;79;31205;-60
2021/11/30 05:53:57;;;;;;;18.27;13.00;;;;;;;2.09;78.29;99191.02;2212978;79;34198;-56
2021/11/30 05:56:59;;;;;;;21.17;15.30;;;;;;;2.11;78.28;99190.51;2202812;79;29744;-58
2021/11/30 06:00:02;;;;;;;18.45;13.68;;;;;;;2.12;78.22;99177.70;2198601;80;27675;-54
2021/11/30 06:03:07;;;;;;;17.85;13.18;;;;;;;2.15;78.18;99169.28;2204941;80;29051;-56
2021/11/30 06:06:08;;;;;;;22.07;13.30;;;;;;;2.11;78.00;99173.81;2220820;80;31846;-57
2021/11/30 06:09:11;;;;;;;18.95;13.85;;;;;;;2.06;77.88;99163.41;2221277;80;33021;-61
2021/11/30 06:12:12;;;;;;;16.42;12.98;;;;;;;2.01;77.71;99153.88;2185790;80;29340;-60
2021/11/30 06:15:15;;;;;;;17.77;12.73;;;;;;;1.92;77.60;99154.60;2180732;80;27640;-55
2021/11/30 06:18:19;;;;;;;19.70;13.85;;;;;;;1.85;77.63;99151.74;2192262;78;28643;-57
2021/11/30 06:21:21;;;;;;;19.10;13.68;;;;;;;1.76;77.52;99145.45;2210745;80;31422;-60
2021/11/30 06:24:23;;;;;;;21.40;15.10;;;;;;;1.67;77.42;99143.50;2189227;80;33754;-56
2021/11/30 06:27:25;;;;;;;21.55;15.45;;;;;;;1.60;77.40;99149.91;2198241;80;31641;-61
2021/11/30 06:30:27;;;;;;;22.25;15.13;;;;;;;1.52;77.37;99146.63;2203419;80;27733;-57
2021/11/30 06:33:29;;;;;;;25.25;16.10;;;;;;;1.46;77.42;99137.59;2179016;81;29220;-68
2021/11/30 06:36:31;;;;;;;25.48;17.85;;;;;;;1.41;77.45;99140.35;2178637;81;32009;-54
2021/11/30 06:39:34;;;;;;;23.20;16.23;;;;;;;1.39;77.53;99138.25;2205941;80;34220;-65
2021/11/30 06:42:36;;;;;;;26.75;17.17;;;;;;;1.40;77.61;99139.09;2190409;80;29960;-67
2021/11/30 06:45:38;;;;;;;25.02;16.60;;;;;;;1.40;77.66;99142.61;2206844;80;27648;-66
2021/11/30 06:48:40;;;;;;;26.15;17.12;;;;;;;1.43;77.81;99137.69;2200508;80;29505;-66
2021/11/30 06:51:43;;;;;;;29.30;19.92;;;;;;;1.46;77.85;99131.00;2179493;80;31499;-67
2021/11/30 06:54:47;;;;;;;26.57;17.77;;;;;;;1.47;77.82;99117.74;2181156;80;34284;-65
2021/11/30 06:57:49;;;;;;;26.73;18.10;;;;;;;1.50;77.84;99116.77;2210810;80;29364;-64
2021/11/30 07:00:52;;;;;;;27.20;18.45;;;;;;;1.54;77.88;99107.86;2178929;81;27706;-61
2021/11/30 07:03:54;;;;;;;37.23;22.65;;;;;;;1.58;77.85;99104.65;2178962;81;29663;-63
2021/11/30 07:07:08;;;;;;;38.08;24.43;;;;;;;1.59;77.64;99103.73;2203213;80;31242;-65
2021/11/30 07:16:26;;;;;;;28.90;19.50;;;;;;;1.71;77.61;99081.36;2077846;84;27764;-60
2021/11/30 07:19:30;;;;;;;34.75;21.45;;;;;;;1.77;77.56;99080.70;2077706;84;28576;-57
2021/11/30 07:22:32;;;;;;;36.57;22.47;;;;;;;1.85;77.50;99071.20;2056531;85;32435;-57
2021/11/30 07:25:35;;;;;;;31.90;20.62;;;;;;;1.94;77.58;99064.30;2054461;86;33749;-61
2021/11/30 07:28:38;;;;;;;29.87;18.82;;;;;;;2.04;77.50;99056.92;2053689;86;29366;-56
2021/11/30 07:31:43;;;;;;;29.23;19.52;;;;;;;2.13;77.31;99053.10;2069544;85;27776;-59
2021/11/30 07:34:46;;;;;;;29.75;20.25;;;;;;;2.23;77.41;99048.36;2078060;85;29439;-57
2021/11/30 07:37:49;;;;;;;28.25;17.80;;;;;;;2.34;77.33;99040.89;2078002;85;31134;-56
2021/11/30 07:40:51;;;;;;;42.93;21.52;;;;;;;2.41;77.07;99029.63;2070498;85;33848;-56
2021/11/30 07:43:53;;;;;;;25.80;15.15;;;;;;;2.46;77.05;99023.73;2081976;84;29815;-57
2021/11/30 07:46:56;;;;;;;31.52;18.40;;;;;;;2.48;76.69;99022.34;2079808;85;27711;-57
2021/11/30 07:49:58;;;;;;;70.05;32.23;;;;;;;2.51;77.00;99020.44;2072789;84;29503;-57
2021/11/30 07:52:59;;;;;;;52.40;24.43;;;;;;;2.53;76.57;99009.82;2175477;80;32106;-57
2021/11/30 07:56:02;;;;;;;37.05;20.37;;;;;;;2.57;76.71;99012.28;2206553;80;34249;-57
2021/11/30 07:59:04;;;;;;;46.50;24.32;;;;;;;2.59;76.41;99012.21;2146362;82;29271;-55
2021/11/30 08:02:06;;;;;;;46.50;23.27;;;;;;;2.63;76.40;99001.93;2178254;81;28005;-57
2021/11/30 08:05:10;;;;;;;51.45;25.25;;;;;;;2.69;76.50;98995.55;2182903;80;28885;-59
2021/11/30 08:08:13;;;;;;;38.25;19.00;;;;;;;2.79;76.46;98992.08;2217378;79;32148;-60
2021/11/30 08:11:15;;;;;;;49.33;24.70;;;;;;;2.90;76.33;98985.91;2219772;79;32959;-64
2021/11/30 08:14:17;;;;;;;41.58;22.40;;;;;;;2.99;75.93;98977.62;2220098;80;30528;-66
2021/11/30 08:17:22;;;;;;;28.90;18.57;;;;;;;3.01;75.70;98976.22;2190145;79;28225;-57
2021/11/30 08:20:23;;;;;;;;;;;;;;;3.01;75.56;98968.28;2197253;80;29759;-62
2021/11/30 08:23:25;;;;;;;22.42;14.63;;;;;;;3.02;75.47;98964.72;2219717;79;31356;-60
2021/11/30 08:26:28;;;;;;;24.98;14.73;;;;;;;3.07;75.50;98952.62;2201177;80;33354;-58
2021/11/30 08:29:32;;;;;;;21.35;13.38;;;;;;;3.12;75.42;98941.39;2181619;81;30483;-65
2021/11/30 08:32:37;;;;;;;37.90;18.90;;;;;;;3.15;75.39;98935.50;2181867;81;27732;-64
2021/11/30 08:35:40;;;;;;;123.90;52.83;;;;;;;3.19;75.34;98935.78;2181792;81;29497;-60
2021/11/30 08:38:42;;;;;;;102.62;40.90;;;;;;;3.21;74.89;98929.13;2178763;80;32310;-57
2021/11/30 08:41:44;;;;;;;125.22;38.78;;;;;;;3.25;75.02;98917.46;2209398;80;34293;-68
2021/11/30 08:44:47;;;;;;;88.60;28.38;;;;;;;3.32;74.88;98907.03;2159402;81;29698;-66
2021/11/30 08:47:49;;;;;;;68.30;26.07;;;;;;;3.38;74.89;98897.95;2156296;81;27739;-59
2021/11/30 08:50:55;;;;;;;52.65;21.68;;;;;;;3.42;74.27;98896.91;2154008;81;29882;-64
2021/11/30 08:53:57;;;;;;;31.07;17.27;;;;;;;3.45;74.35;98896.78;2103254;84;31256;-68
2021/11/30 08:57:01;;;;;;;25.75;14.83;;;;;;;3.49;74.28;98897.02;2169189;80;33625;-66
2021/11/30 09:00:11;;;;;;;18.98;12.15;;;;;;;3.55;74.23;98898.57;2145952;83;29711;-68
2021/11/30 09:03:13;;;;;;;20.32;12.45;;;;;;;3.56;74.07;98887.50;2220691;80;27826;-63
2021/11/30 09:06:15;;;;;;;20.92;12.73;;;;;;;3.59;73.79;98871.48;2219281;79;29904;-68
2021/11/30 09:09:18;;;;;;;16.48;10.08;;;;;;;3.55;73.74;98869.45;2214748;80;32223;-60
2021/11/30 09:12:20;;;;;;;25.02;10.65;;;;;;;3.49;73.38;98862.61;2169042;80;33002;-69
2021/11/30 09:15:22;;;;;;;21.42;12.00;;;;;;;3.46;73.60;98842.91;2167771;82;30508;-70
2021/11/30 09:18:29;;;;;;;46.23;24.55;;;;;;;3.49;73.60;98839.25;2186689;80;27693;-62
2021/11/30 09:21:28;;;;;;;193.37;121.65;;;;;;;3.49;72.80;98822.05;2184037;80;28599;-63
2021/11/30 09:24:31;;;;;;;55.17;35.55;;;;;;;3.56;73.45;98816.02;2167746;82;32243;-66
2021/11/30 09:27:33;;;;;;;42.08;22.17;;;;;;;3.62;73.52;98810.45;2168127;82;33783;-70
2021/11/30 09:30:36;;;;;;;33.45;17.92;;;;;;;3.73;73.43;98795.37;2168706;80;29154;-68
2021/11/30 09:33:41;;;;;;;48.87;27.52;;;;;;;3.83;73.13;98779.91;2168056;81;27708;-56
2021/11/30 09:36:46;;;;;;;60.43;37.88;;;;;;;3.92;72.91;98769.75;2197526;80;30080;-56
2021/11/30 09:39:48;;;;;;;66.67;35.08;;;;;;;3.97;72.42;98750.13;2207290;80;31018;-55
2021/11/30 09:42:51;;;;;;;111.70;56.95;;;;;;;4.05;72.11;98742.20;2177023;80;33813;-55
2021/11/30 09:45:56;;;;;;;99.17;52.98;;;;;;;4.12;71.98;98736.14;2166939;82;30429;-56
2021/11/30 09:48:59;;;;;;;69.37;31.40;;;;;;;4.20;71.92;98723.39;2170921;81;27696;-58
2021/11/30 09:52:02;;;;;;;46.35;21.25;;;;;;;4.29;71.72;98711.48;2149236;81;30065;-58
2021/11/30 09:55:07;;;;;;;36.68;20.70;;;;;;;4.39;71.50;98703.45;2206462;80;31146;-58
2021/11/30 09:58:11;;;;;;;37.90;22.93;;;;;;;4.48;71.32;98696.82;2201805;80;34040;-60
2021/11/30 10:01:13;;;;;;;18.50;12.65;;;;;;;4.59;71.47;98682.14;2185722;80;30121;-61
2021/11/30 10:04:15;;;;;;;28.55;16.42;;;;;;;4.67;70.98;98671.53;2175118;81;27632;-63
2021/11/30 10:07:19;;;;;;;17.62;10.18;;;;;;;4.75;70.47;98660.52;2173681;81;28672;-67
2021/11/30 10:10:30;;;;;;;27.45;15.10;;;;;;;4.79;69.69;98649.30;2175895;80;30703;-63
2021/11/30 10:13:34;;;;;;;21.62;12.28;;;;;;;4.81;70.38;98627.05;2177882;81;34186;-59
2021/11/30 10:16:38;;;;;;;22.07;13.28;;;;;;;4.83;69.85;98610.58;2186234;80;33631;-60
2021/11/30 10:19:43;;;;;;;16.93;10.75;;;;;;;4.91;69.90;98614.60;2142867;83;28135;-68
2021/11/30 10:22:56;;;;;;;17.50;10.47;;;;;;;4.92;69.45;98596.42;2121431;83;29497;-68
2021/11/30 10:26:04;;;;;;;19.60;13.58;;;;;;;4.93;69.61;98580.88;2185727;80;31080;-68
2021/11/30 10:29:10;;;;;;;19.95;12.90;;;;;;;5.01;69.69;98565.41;2178853;80;32969;-64
2021/11/30 10:32:15;;;;;;;28.95;16.87;;;;;;;5.00;69.20;98555.25;2178678;81;29347;-68
2021/11/30 10:35:18;;;;;;;19.32;12.47;;;;;;;5.05;69.61;98547.52;2178673;80;27703;-58
2021/11/30 10:38:22;;;;;;;14.65;9.93;;;;;;;5.09;69.67;98528.67;2197065;80;28651;-65
2021/11/30 10:41:26;;;;;;;12.60;7.55;;;;;;;5.06;69.40;98521.37;2178378;80;31309;-57
2021/11/30 10:44:32;;;;;;;11.85;7.90;;;;;;;5.05;69.02;98500.59;2178583;81;33412;-63
2021/11/30 10:47:36;;;;;;;22.93;13.15;;;;;;;5.04;68.96;98492.73;2143626;81;30512;-65
2021/11/30 10:50:45;;;;;;;19.52;10.25;;;;;;;5.00;68.91;98469.01;2142695;82;27682;-59
2021/11/30 10:53:50;;;;;;;18.20;9.98;;;;;;;4.96;68.74;98464.84;2234382;79;29602;-56
2021/11/30 10:57:02;;;;;;;24.57;12.18;;;;;;;4.90;68.30;98465.62;2235304;79;31101;-56
2021/11/30 11:00:28;;;;;;;28.55;14.65;;;;;;;4.83;68.73;98455.83;2219006;79;34200;-56
2021/11/30 11:03:26;;;;;;;26.35;12.15;;;;;;;4.79;69.12;98447.69;2193666;81;29817;-57
2021/11/30 11:06:31;;;;;;;20.80;10.93;;;;;;;4.72;68.87;98424.59;2196046;81;27672;-56
2021/11/30 11:09:47;;;;;;;23.62;10.50;;;;;;;4.62;68.79;98420.76;2198277;80;28846;-59
2021/11/30 11:12:49;;;;;;;14.38;7.97;;;;;;;4.61;68.89;98420.38;2203683;80;31873;-55
2021/11/30 11:15:58;;;;;;;11.65;7.42;;;;;;;4.55;68.78;98413.13;2233635;79;33450;-51
2021/11/30 11:19:09;;;;;;;84.58;48.68;;;;;;;4.54;69.12;98407.47;2234305;78;29249;-54
2021/11/30 11:22:22;;;;;;;15.98;10.90;;;;;;;4.50;69.24;98404.59;2233253;79;27971;-55
2021/11/30 11:25:31;;;;;;;15.40;10.43;;;;;;;4.46;69.31;98390.27;2235303;79;28667;-61
2021/11/30 11:28:33;;;;;;;16.32;10.08;;;;;;;4.41;69.44;98384.75;2143214;83;32259;-63
2021/11/30 11:31:36;;;;;;;15.18;10.13;;;;;;;4.41;69.53;98378.58;2228783;79;32977;-57
2021/11/30 11:34:39;;;;;;;11.03;7.47;;;;;;;4.35;69.63;98364.36;2195873;81;29567;-56
2021/11/30 11:37:41;;;;;;;10.60;6.20;;;;;;;4.26;69.77;98351.14;2195888;81;27701;-54
2021/11/30 11:40:44;;;;;;;14.25;8.70;;;;;;;4.17;69.91;98342.36;2107992;83;29753;-55
2021/11/30 11:43:46;;;;;;;9.80;6.20;;;;;;;4.16;70.28;98332.23;2153598;82;31079;-69
2021/11/30 11:46:50;;;;;;;9.13;6.30;;;;;;;4.20;70.45;98322.31;2202634;80;33959;-62
2021/11/30 11:49:55;;;;;;;11.20;6.75;;;;;;;4.19;70.51;98312.66;2180405;80;30177;-69
2021/11/30 11:52:59;;;;;;;12.45;7.95;;;;;;;4.17;70.57;98298.63;2207199;80;27458;-58
2021/11/30 11:56:19;;;;;;;17.05;11.35;;;;;;;4.14;70.67;98292.20;2206947;80;28562;-56
2021/11/30 11:59:21;;;;;;;16.77;9.85;;;;;;;4.12;70.69;98292.27;2199176;80;31927;-58
2021/11/30 12:02:27;;;;;;;40.17;25.97;;;;;;;4.09;70.78;98288.45;2168839;82;33962;-55
2021/11/30 12:05:52;;;;;;;20.57;11.45;;;;;;;4.07;70.99;98273.98;2169326;80;30095;-57
2021/11/30 12:09:10;;;;;;;15.85;8.63;;;;;;;4.06;70.87;98258.16;2168838;82;27598;-60
2021/11/30 12:12:23;;;;;;;10.00;6.58;;;;;;;4.04;71.23;98249.46;2110077;84;29517;-60
2021/11/30 12:15:28;;;;;;;12.88;6.75;;;;;;;4.00;71.28;98235.51;2213739;80;32216;-63
2021/11/30 12:18:40;;;;;;;7.72;5.30;;;;;;;4.00;71.51;98243.45;2220058;80;33790;-57
2021/11/30 12:21:42;;;;;;;13.30;8.68;;;;;;;4.02;71.54;98236.28;2192367;80;29180;-67
2021/11/30 12:24:47;;;;;;;14.00;9.03;;;;;;;4.07;71.66;98227.61;2110068;84;27673;-68
2021/11/30 12:27:50;;;;;;;25.32;14.58;;;;;;;4.10;71.55;98218.63;2217288;80;43064;-60
2021/11/30 12:30:53;;;;;;;35.03;17.75;;;;;;;4.06;71.49;98213.98;2149741;82;32274;-54
2021/11/30 12:33:55;;;;;;;14.73;9.25;;;;;;;4.05;71.54;98205.65;2194609;80;33388;-59
2021/11/30 12:37:13;;;;;;;20.70;11.43;;;;;;;4.05;71.56;98196.86;2110353;83;30225;-53
2021/11/30 12:40:16;;;;;;;22.87;12.18;;;;;;;4.04;71.60;98201.28;2184104;81;27619;-60
2021/11/30 12:43:23;;;;;;;16.97;8.03;;;;;;;4.08;71.86;98191.36;2215472;80;28774;-62
2021/11/30 12:46:40;;;;;;;13.98;7.08;;;;;;;4.07;71.81;98181.24;2201086;80;31839;-58
2021/11/30 12:49:44;;;;;;;25.02;12.28;;;;;;;4.13;71.95;98184.01;2222037;79;32976;-70
2021/11/30 12:52:47;;;;;;;22.73;11.97;;;;;;;4.11;71.71;98181.91;2234692;79;29428;-60
2021/11/30 12:55:53;;;;;;;25.95;11.60;;;;;;;4.09;71.85;98174.06;2203200;79;27751;-55
2021/11/30 12:58:55;;;;;;;23.85;8.85;;;;;;;4.10;71.97;98173.13;2236008;79;29529;-62
2021/11/30 13:02:31;;;;;;;31.25;15.05;;;;;;;4.11;71.96;98175.29;2224256;79;31634;-66
2021/11/30 13:05:32;;;;;;;;;;;;;;;4.10;71.72;98161.66;2198049;81;32980;-54
2021/11/30 13:09:08;;;;;;;12.07;6.22;;;;;;;4.10;72.09;98165.63;2195378;81;30472;-60
2021/11/30 13:12:21;;;;;;;19.12;8.00;;;;;;;4.12;72.05;98173.52;2195483;79;28115;-57
2021/11/30 13:15:23;;;;;;;13.20;8.23;;;;;;;4.12;72.16;98169.05;2193660;81;29799;-61
2021/11/30 13:18:31;;;;;;;12.70;6.92;;;;;;;4.13;72.00;98170.76;2124432;82;32010;-55
2021/11/30 13:21:40;;;;;;;10.15;5.10;;;;;;;4.14;72.08;98159.22;2117788;83;32975;-56
2021/11/30 13:24:49;;;;;;;10.15;5.25;;;;;;;4.14;72.07;98159.70;2195328;81;29834;-55
2021/11/30 13:27:56;;;;;;;11.12;6.03;;;;;;;4.14;72.21;98161.03;2195983;81;27678;-55
2021/11/30 13:31:03;;;;;;;7.35;3.83;;;;;;;4.14;72.19;98150.43;2197839;79;29888;-56
2021/11/30 13:34:13;;;;;;;10.38;5.35;;;;;;;4.13;72.30;98145.59;2195490;81;31059;-55
2021/11/30 13:37:15;;;;;;;5.25;3.42;;;;;;;4.11;72.43;98140.84;2107428;84;33873;-60
2021/11/30 13:40:42;;;;;;;8.98;5.00;;;;;;;4.15;72.65;98136.21;2196560;80;30567;-57
2021/11/30 13:43:49;;;;;;;7.22;2.75;;;;;;;4.18;72.76;98134.71;2144270;82;27668;-58
2021/11/30 13:46:51;;;;;;;4.72;2.10;;;;;;;4.21;72.87;98130.56;2218707;80;29823;-57
2021/11/30 13:49:53;;;;;;;8.70;4.30;;;;;;;4.21;72.88;98130.56;2216551;80;31856;-56
2021/11/30 13:53:11;;;;;;;4.72;2.60;;;;;;;4.22;73.05;98130.95;2143665;83;34305;-58
2021/11/30 13:56:26;;;;;;;6.55;2.62;;;;;;;4.22;73.23;98137.09;2197299;80;30554;-70
2021/11/30 13:59:39;;;;;;;9.68;4.53;;;;;;;4.26;73.27;98123.20;2166608;80;27639;-65
2021/11/30 14:02:39;;;;;;;8.58;4.40;;;;;;;4.26;73.35;98125.37;2163434;81;29546;-70
2021/11/30 14:05:41;;;;;;;8.93;4.42;;;;;;;4.29;73.48;98124.81;2129711;83;31426;-63
2021/11/30 14:08:43;;;;;;;10.50;4.78;;;;;;;4.32;73.59;98132.59;2147642;82;34182;-67
2021/11/30 14:12:07;;;;;;;11.03;4.53;;;;;;;4.31;73.69;98125.09;2131554;83;28679;-63
2021/11/30 14:15:09;;;;;;;9.08;4.47;;;;;;;4.32;73.69;98121.50;2180168;81;27713;-57
2021/11/30 14:18:11;;;;;;;8.18;3.40;;;;;;;4.33;73.75;98118.39;2178911;81;28651;-55
2021/11/30 14:21:14;;;;;;;7.45;3.45;;;;;;;4.34;73.74;98121.42;2175115;80;31020;-56
2021/11/30 14:24:16;;;;;;;10.18;5.10;;;;;;;4.33;73.79;98120.55;2182203;81;34067;-58
2021/11/30 14:27:19;;;;;;;7.42;3.10;;;;;;;4.32;73.87;98120.17;2145119;83;30278;-58
2021/11/30 14:30:35;;;;;;;5.30;2.27;;;;;;;4.33;73.85;98111.77;2182110;80;27609;-54